KNBC

Beaufort MCAS / Merritt Field / Airport

Beaufort, South Carolina, USA
METAR KNBC 141247Z 34006KT 1SM RA BR SCT002 BKN011 OVC022 16/16 A3010 RMK AO2 SFC VIS 2 1/2 P0021 T01610161
Observed Flight Rules
Dec-14 @ 12:47 UTC (12 minutes ago) Instrument Flight Rules
Wind Visibility Clouds Conditions
340° at 6 knots 1 miles
  • Scattered at 200' AGL
  • Broken at 1,100' AGL
  • Overcast at 2,200' AGL
  • Rain
  • Mist
Temperatures Readings Precipitation
Current 16°C / 61°F
Dewpoint 16°C / 61°F
Humidity 100%
Altimeter 30.1" Hg
Pressure 1019 hPa
Elevation 12
Current Rain 0.21
METAR KNBC 141247Z 34006KT 1SM RA BR SCT002 BKN011 OVC022 16/16 A3010 RMK AO2 SFC VIS 2 1/2 P0021 T01610161
Observed Flight Rules
Dec-14 @ 12:47 UTC
(12 minutes ago)
IFR
Wind Visibility
340° at 6 knots 1 miles
Clouds
  • Scattered at 200' AGL
  • Broken at 1,100' AGL
  • Overcast at 2,200' AGL
Conditions
  • Rain
  • Mist
Temperature Dewpoint
16°C / 61°F 16°C / 61°F
Humidity Altimeter Pressure
100% 30.1" Hg 1019 hPa
Current Rain
0.21